createdAt,value
2022-09-27T00:00:45.127Z,98708.66
2022-09-27T00:03:13.842Z,98715.38
2022-09-27T00:05:42.377Z,98700.94
2022-09-27T00:08:10.436Z,98698.59
2022-09-27T00:10:39.748Z,98694.53
2022-09-27T00:13:10.122Z,98697.03
2022-09-27T00:15:45.458Z,98695.56
2022-09-27T00:18:13.500Z,98692.19
2022-09-27T00:20:41.459Z,98690.34
2022-09-27T00:23:09.883Z,98694.59
2022-09-27T00:25:41.903Z,98696.34
2022-09-27T00:28:10.089Z,98693.16
2022-09-27T00:30:43.240Z,98694.97
2022-09-27T00:33:23.650Z,98686.81
2022-09-27T00:35:51.691Z,98680.75
2022-09-27T00:38:19.863Z,98673.97
2022-09-27T00:40:56.715Z,98677.44
2022-09-27T00:43:25.045Z,98683.84
2022-09-27T00:45:56.819Z,98681.94
2022-09-27T00:48:29.990Z,98679.16
2022-09-27T00:51:04.860Z,98664.78
2022-09-27T00:53:36.041Z,98674.88
2022-09-27T00:56:20.038Z,98663.53
2022-09-27T00:59:11.921Z,98661.97
2022-09-27T01:01:40.854Z,98659.34
2022-09-27T01:04:10.699Z,98663.63
2022-09-27T01:06:39.077Z,98665.09
2022-09-27T01:09:09.227Z,98667.63
2022-09-27T01:11:46.989Z,98665.78
2022-09-27T01:14:40.801Z,98662.38
2022-09-27T01:17:26.643Z,98659.88
2022-09-27T01:20:42.854Z,98652.13
2022-09-27T01:23:43.794Z,98661.16
2022-09-27T01:26:21.737Z,98660.28
2022-09-27T01:29:01.832Z,98650.06
2022-09-27T01:31:37.080Z,98655.84
2022-09-27T01:34:10.389Z,98645.78
2022-09-27T01:37:01.716Z,98644.13
2022-09-27T01:40:02.706Z,98642.50
2022-09-27T01:42:37.352Z,98635.47
2022-09-27T01:45:14.688Z,98640.22
2022-09-27T01:48:08.802Z,98626.34
2022-09-27T01:51:05.978Z,98642.22
2022-09-27T01:53:38.311Z,98620.00
2022-09-27T01:56:31.894Z,98643.19
2022-09-27T01:59:17.050Z,98639.91
2022-09-27T02:02:05.586Z,98637.47
2022-09-27T02:04:59.580Z,98630.72
2022-09-27T02:07:39.195Z,98629.84
2022-09-27T02:10:12.362Z,98627.94
2022-09-27T02:13:00.445Z,98624.44
2022-09-27T02:15:29.967Z,98631.03
2022-09-27T02:18:26.390Z,98626.00
2022-09-27T02:21:00.110Z,98622.59
2022-09-27T02:23:37.206Z,98619.03
2022-09-27T02:26:17.289Z,98630.66
2022-09-27T02:28:49.759Z,98621.31
2022-09-27T02:31:25.596Z,98623.53
2022-09-27T02:34:00.961Z,98616.00
2022-09-27T02:36:31.177Z,98601.31
2022-09-27T02:39:02.477Z,98611.91
2022-09-27T02:41:36.851Z,98607.47
2022-09-27T02:44:11.364Z,98610.16
2022-09-27T02:47:14.357Z,98618.50
2022-09-27T02:50:06.065Z,98616.88
2022-09-27T02:53:08.114Z,98608.44
2022-09-27T02:55:51.373Z,98614.53
2022-09-27T02:58:52.596Z,98613.84
2022-09-27T03:01:39.552Z,98615.75
2022-09-27T03:04:16.613Z,98613.34
2022-09-27T03:06:48.918Z,98614.28
2022-09-27T03:09:22.165Z,98611.84
2022-09-27T03:11:50.522Z,98613.50
2022-09-27T03:14:20.660Z,98621.13
2022-09-27T03:17:08.331Z,98613.69
2022-09-27T03:20:06.698Z,98614.53
2022-09-27T03:22:54.872Z,98612.91
2022-09-27T03:25:25.306Z,98606.22
2022-09-27T03:27:53.228Z,98612.81
2022-09-27T03:30:21.464Z,98607.94
2022-09-27T03:32:49.416Z,98609.88
2022-09-27T03:35:32.303Z,98606.59
2022-09-27T03:38:04.130Z,98610.56
2022-09-27T03:40:34.653Z,98609.09
2022-09-27T03:43:10.549Z,98612.13
2022-09-27T03:45:38.416Z,98600.28
2022-09-27T03:48:10.067Z,98606.53
2022-09-27T03:50:38.351Z,98610.72
2022-09-27T03:53:09.011Z,98603.94
2022-09-27T03:55:41.348Z,98610.53
2022-09-27T03:58:17.193Z,98606.97
2022-09-27T04:00:48.737Z,98623.63
2022-09-27T04:03:17.580Z,98614.06
2022-09-27T04:06:04.315Z,98616.22
2022-09-27T04:08:38.799Z,98625.16
2022-09-27T04:11:12.580Z,98618.94
2022-09-27T04:13:45.388Z,98602.78
2022-09-27T04:16:14.000Z,98617.66
2022-09-27T04:19:12.603Z,98620.66
2022-09-27T04:21:50.130Z,98619.88
2022-09-27T04:24:19.049Z,98623.94
2022-09-27T04:27:08.009Z,98623.28
2022-09-27T04:29:43.231Z,98632.53
2022-09-27T04:32:27.184Z,98622.59
2022-09-27T04:35:32.285Z,98626.94
2022-09-27T04:38:04.156Z,98622.84
2022-09-27T04:40:35.569Z,98623.44
2022-09-27T04:43:05.166Z,98644.75
2022-09-27T04:45:33.170Z,98623.94
2022-09-27T04:48:03.545Z,98642.97
2022-09-27T04:50:40.297Z,98617.00
2022-09-27T04:53:15.075Z,98646.28
2022-09-27T04:55:47.402Z,98639.34
2022-09-27T04:58:17.679Z,98652.09
2022-09-27T05:00:46.945Z,98652.88
2022-09-27T05:03:39.935Z,98658.88
2022-09-27T05:06:15.343Z,98641.47
2022-09-27T05:08:43.893Z,98648.59
2022-09-27T05:11:29.228Z,98657.13
2022-09-27T05:17:18.922Z,98650.66
2022-09-27T05:20:15.786Z,98669.91
2022-09-27T05:23:05.009Z,98674.81
2022-09-27T05:25:34.007Z,98669.53
2022-09-27T05:28:02.106Z,98669.69
2022-09-27T05:30:30.243Z,98671.25
2022-09-27T05:33:11.560Z,98670.09
2022-09-27T05:35:54.906Z,98674.56
2022-09-27T05:38:32.081Z,98678.78
2022-09-27T05:41:04.117Z,98671.97
2022-09-27T05:43:36.332Z,98685.38
2022-09-27T05:46:07.709Z,98688.00
2022-09-27T05:48:44.739Z,98690.03
2022-09-27T05:51:16.320Z,98688.38
2022-09-27T05:53:52.805Z,98687.09
2022-09-27T05:56:42.220Z,98687.97
2022-09-27T05:59:13.105Z,98689.72
2022-09-27T06:01:59.821Z,98686.06
2022-09-27T06:04:46.786Z,98692.91
2022-09-27T06:07:34.264Z,98694.81
2022-09-27T06:10:10.758Z,98693.47
2022-09-27T06:12:38.824Z,98690.97
2022-09-27T06:15:17.387Z,98696.84
2022-09-27T06:17:46.888Z,98699.34
2022-09-27T06:20:18.472Z,98701.03
2022-09-27T06:22:54.090Z,98712.16
2022-09-27T06:25:27.153Z,98703.22
2022-09-27T06:28:30.515Z,98711.06
2022-09-27T06:31:00.548Z,98707.84
2022-09-27T06:33:41.513Z,98709.69
2022-09-27T06:36:10.691Z,98719.75
2022-09-27T06:38:42.071Z,98715.38
2022-09-27T06:41:17.124Z,98715.22
2022-09-27T06:44:14.555Z,98723.06
2022-09-27T06:47:15.434Z,98727.13
2022-09-27T06:50:05.331Z,98721.13
2022-09-27T06:52:33.307Z,98729.44
2022-09-27T06:55:02.808Z,98734.69
2022-09-27T06:57:49.911Z,98735.22
2022-09-27T07:00:27.540Z,98744.41
2022-09-27T07:03:19.712Z,98738.72
2022-09-27T07:06:22.768Z,98745.47
2022-09-27T07:08:56.502Z,98750.41
2022-09-27T07:11:26.118Z,98747.22
2022-09-27T07:13:55.154Z,98734.25
2022-09-27T07:16:23.973Z,98753.03
2022-09-27T07:18:51.789Z,98763.00
2022-09-27T07:21:19.805Z,98760.50
2022-09-27T07:23:54.457Z,98761.16
2022-09-27T07:26:22.917Z,98775.13
2022-09-27T07:28:53.342Z,98770.00
2022-09-27T07:31:23.006Z,98773.13
2022-09-27T07:33:52.687Z,98775.63
2022-09-27T07:36:20.649Z,98784.16
2022-09-27T07:38:50.898Z,98785.53
2022-09-27T07:41:23.879Z,98781.34
2022-09-27T07:43:53.401Z,98790.75
2022-09-27T07:46:22.469Z,98775.63
2022-09-27T07:49:12.628Z,98786.66
2022-09-27T07:52:09.740Z,98795.78
2022-09-27T07:55:16.424Z,98803.31
2022-09-27T07:58:04.744Z,98801.19
2022-09-27T08:01:00.204Z,98803.78
2022-09-27T08:03:31.177Z,98807.59
2022-09-27T08:06:04.387Z,98790.59
2022-09-27T08:08:33.051Z,98816.59
2022-09-27T08:11:02.091Z,98805.28
2022-09-27T08:13:29.931Z,98819.69
2022-09-27T08:16:06.539Z,98821.94
2022-09-27T08:18:51.850Z,98818.84
2022-09-27T08:21:47.846Z,98824.34
2022-09-27T08:24:26.068Z,98835.28
2022-09-27T08:27:11.939Z,98832.38
2022-09-27T08:30:00.678Z,98850.56
2022-09-27T08:32:30.878Z,98846.03
2022-09-27T08:35:01.570Z,98849.22
2022-09-27T08:37:42.027Z,98855.53
2022-09-27T08:40:15.293Z,98856.75
2022-09-27T08:42:52.436Z,98859.25
2022-09-27T08:45:37.290Z,98853.34
2022-09-27T08:48:12.362Z,98861.06
2022-09-27T08:50:44.248Z,98864.94
2022-09-27T08:53:22.393Z,98853.22
2022-09-27T08:55:56.427Z,98872.66
2022-09-27T08:58:35.756Z,98868.38
2022-09-27T09:01:15.786Z,98872.75
2022-09-27T09:04:12.022Z,98874.56
2022-09-27T09:06:53.787Z,98874.09
2022-09-27T09:12:48.365Z,98884.69
2022-09-27T09:15:54.269Z,98875.34
2022-09-27T09:18:46.900Z,98883.97
2022-09-27T09:21:32.454Z,98883.72
2022-09-27T09:24:24.581Z,98871.97
2022-09-27T09:27:14.631Z,98884.59
2022-09-27T09:30:18.936Z,98868.69
2022-09-27T09:33:16.716Z,98892.22
2022-09-27T09:35:52.546Z,98882.28
2022-09-27T09:38:38.732Z,98883.84
2022-09-27T09:41:14.175Z,98883.16
2022-09-27T09:43:48.072Z,98853.22
2022-09-27T09:46:26.199Z,98884.88
2022-09-27T09:49:02.984Z,98877.66
2022-09-27T09:51:41.980Z,98875.41
2022-09-27T09:54:20.732Z,98882.44
2022-09-27T09:56:51.709Z,98879.50
2022-09-27T09:59:27.957Z,98879.34
2022-09-27T10:02:04.625Z,98885.75
2022-09-27T10:04:34.626Z,98870.44
2022-09-27T10:07:03.890Z,98881.94
2022-09-27T10:09:38.226Z,98883.06
2022-09-27T10:12:45.486Z,98876.63
2022-09-27T10:15:17.801Z,98867.47
2022-09-27T10:17:51.633Z,98858.22
2022-09-27T10:20:27.964Z,98877.47
2022-09-27T10:23:07.195Z,98887.47
2022-09-27T10:25:57.846Z,98854.59
2022-09-27T10:28:48.154Z,98879.03
2022-09-27T10:31:21.759Z,98881.06
2022-09-27T10:34:28.267Z,98866.84
2022-09-27T10:37:18.768Z,98904.56
2022-09-27T10:40:25.825Z,98898.91
2022-09-27T10:42:56.284Z,98898.09
2022-09-27T10:45:37.072Z,98911.97
2022-09-27T10:48:22.286Z,98904.75
2022-09-27T10:54:00.265Z,98903.38
2022-09-27T10:56:33.851Z,98897.38
2022-09-27T10:59:05.803Z,98896.78
2022-09-27T11:01:50.722Z,98838.56
2022-09-27T11:04:40.035Z,98864.84
2022-09-27T11:07:20.103Z,98894.44
2022-09-27T11:10:10.396Z,98890.78
2022-09-27T11:12:42.094Z,98894.97
2022-09-27T11:15:20.986Z,98889.69
2022-09-27T11:18:03.468Z,98896.47
2022-09-27T11:20:40.512Z,98895.16
2022-09-27T11:23:44.564Z,98902.28
2022-09-27T11:26:38.609Z,98893.09
2022-09-27T11:29:23.027Z,98896.66
2022-09-27T11:32:38.347Z,98896.84
2022-09-27T11:35:33.382Z,98911.09
2022-09-27T11:38:40.915Z,98908.91
2022-09-27T11:41:34.390Z,98901.50
2022-09-27T11:44:22.836Z,98936.41
2022-09-27T11:46:58.968Z,98939.16
2022-09-27T11:49:54.484Z,98939.81
2022-09-27T11:52:46.316Z,98933.13
2022-09-27T11:55:34.199Z,98943.06
2022-09-27T11:58:15.665Z,98949.06
2022-09-27T12:01:07.969Z,98947.13
2022-09-27T12:04:01.206Z,98956.50
2022-09-27T12:06:56.379Z,98957.69
2022-09-27T12:10:06.872Z,98962.50
2022-09-27T12:12:40.917Z,98966.31
2022-09-27T12:15:17.445Z,98966.50
2022-09-27T12:17:52.584Z,98967.94
2022-09-27T12:20:24.447Z,98964.53
2022-09-27T12:23:04.199Z,98958.84
2022-09-27T12:26:07.134Z,98973.56
2022-09-27T12:28:41.953Z,98967.94
2022-09-27T12:31:34.528Z,98974.44
2022-09-27T12:34:20.632Z,98978.88
2022-09-27T12:37:08.612Z,98976.13
2022-09-27T12:39:51.153Z,98967.81
2022-09-27T12:42:43.199Z,98967.03
2022-09-27T12:45:35.378Z,98976.63
2022-09-27T12:48:14.087Z,98974.59
2022-09-27T12:50:45.770Z,98971.13
2022-09-27T12:53:23.680Z,98979.66
2022-09-27T12:56:26.561Z,98984.09
2022-09-27T12:59:26.986Z,98980.72
2022-09-27T13:02:29.219Z,98980.03
2022-09-27T13:05:32.161Z,98981.31
2022-09-27T13:08:45.318Z,98977.13
2022-09-27T13:11:24.720Z,98979.28
2022-09-27T13:13:57.303Z,98961.06
2022-09-27T13:16:28.806Z,98987.03
2022-09-27T13:19:01.393Z,98984.53
2022-09-27T13:21:59.534Z,98987.53
2022-09-27T13:24:55.298Z,98983.44
2022-09-27T13:28:39.941Z,98981.72
2022-09-27T13:31:18.853Z,98978.91
2022-09-27T13:33:53.599Z,98988.03
2022-09-27T13:36:33.199Z,98974.28
2022-09-27T13:39:21.230Z,98982.41
2022-09-27T13:42:35.377Z,98982.38
2022-09-27T13:45:32.906Z,98972.47
2022-09-27T13:48:03.280Z,98987.72
2022-09-27T13:50:47.015Z,98990.13
2022-09-27T13:53:34.019Z,98984.56
2022-09-27T13:56:05.614Z,98989.59
2022-09-27T13:59:00.803Z,98984.94
2022-09-27T14:02:10.551Z,98968.50
2022-09-27T14:04:46.781Z,98985.00
2022-09-27T14:07:21.235Z,98976.22
2022-09-27T14:09:55.472Z,98987.59
2022-09-27T14:12:33.165Z,98984.72
2022-09-27T14:15:05.334Z,98987.81
2022-09-27T14:17:36.128Z,98971.44
2022-09-27T14:20:32.953Z,98992.16
2022-09-27T14:23:02.326Z,98976.47
2022-09-27T14:25:40.399Z,98993.72
2022-09-27T14:28:26.193Z,98989.38
2022-09-27T14:31:23.107Z,99005.28
2022-09-27T14:34:17.129Z,99019.88
2022-09-27T14:37:07.340Z,99010.47
2022-09-27T14:39:55.208Z,98999.47
2022-09-27T14:42:32.941Z,99012.22
2022-09-27T14:45:14.648Z,99024.25
2022-09-27T14:47:47.577Z,99032.53
2022-09-27T14:50:24.607Z,99042.00
2022-09-27T14:52:56.174Z,99044.63
2022-09-27T14:55:28.359Z,99043.59
2022-09-27T14:57:58.912Z,99043.34
2022-09-27T15:00:32.170Z,99040.34
2022-09-27T15:03:03.320Z,99040.69
2022-09-27T15:05:34.444Z,99042.41
2022-09-27T15:08:05.777Z,99044.94
2022-09-27T15:10:36.308Z,99032.38
2022-09-27T15:13:06.964Z,99014.25
2022-09-27T15:15:41.615Z,99031.16
2022-09-27T15:18:46.662Z,99027.97
2022-09-27T15:21:31.016Z,99025.69
2022-09-27T15:23:59.523Z,99029.03
2022-09-27T15:26:47.552Z,99013.06
2022-09-27T15:29:20.995Z,99034.44
2022-09-27T15:32:00.557Z,99036.69
2022-09-27T15:34:32.847Z,99034.41
2022-09-27T15:37:03.746Z,99033.94
2022-09-27T15:39:34.957Z,99040.94
2022-09-27T15:42:08.804Z,99042.47
2022-09-27T15:44:50.557Z,99028.34
2022-09-27T15:47:41.203Z,99037.84
2022-09-27T15:50:44.889Z,99036.31
2022-09-27T15:53:44.659Z,99044.63
2022-09-27T15:56:16.875Z,99044.84
2022-09-27T15:58:45.830Z,99043.88
2022-09-27T16:01:19.816Z,99039.41
2022-09-27T16:03:48.039Z,99044.19
2022-09-27T16:06:16.035Z,99043.91
2022-09-27T16:08:45.992Z,99022.75
2022-09-27T16:11:17.151Z,99036.13
2022-09-27T16:13:45.260Z,99044.56
2022-09-27T16:16:17.204Z,99043.81
2022-09-27T16:18:46.745Z,99043.59
2022-09-27T16:21:16.396Z,99038.38
2022-09-27T16:23:45.617Z,99036.59
2022-09-27T16:26:13.759Z,99044.94
2022-09-27T16:28:41.664Z,99036.59
2022-09-27T16:31:10.295Z,99041.06
2022-09-27T16:33:38.086Z,99037.69
2022-09-27T16:36:09.166Z,99026.06
2022-09-27T16:38:40.084Z,99030.25
2022-09-27T16:41:09.454Z,99031.88
2022-09-27T16:43:49.760Z,99035.47
2022-09-27T16:46:19.881Z,99038.97
2022-09-27T16:48:48.797Z,99050.56
2022-09-27T16:51:36.033Z,99056.69
2022-09-27T16:54:05.617Z,99049.69
2022-09-27T16:56:35.570Z,99064.69
2022-09-27T16:59:05.339Z,99068.78
2022-09-27T17:01:35.401Z,99073.28
2022-09-27T17:04:10.615Z,99069.16
2022-09-27T17:06:38.812Z,99071.25
2022-09-27T17:09:07.107Z,99070.63
2022-09-27T17:11:39.472Z,99052.56
2022-09-27T17:14:07.359Z,99070.84
2022-09-27T17:16:35.661Z,99068.66
2022-09-27T17:19:03.486Z,99056.63
2022-09-27T17:21:37.755Z,99062.97
2022-09-27T17:24:09.826Z,99049.44
2022-09-27T17:26:42.418Z,99028.25
2022-09-27T17:29:11.500Z,99046.72
2022-09-27T17:31:40.377Z,99055.09
2022-09-27T17:34:10.348Z,99060.38
2022-09-27T17:36:41.687Z,99050.53
2022-09-27T17:39:12.645Z,99055.00
2022-09-27T17:41:59.781Z,99056.88
2022-09-27T17:44:28.064Z,99053.47
2022-09-27T17:47:20.159Z,99053.03
2022-09-27T17:50:07.115Z,99067.00
2022-09-27T17:52:35.190Z,99065.72
2022-09-27T17:55:06.722Z,99066.69
2022-09-27T17:57:35.864Z,99059.25
2022-09-27T18:00:04.602Z,99059.25
2022-09-27T18:02:41.360Z,99062.00
2022-09-27T18:05:12.555Z,99061.31
2022-09-27T18:07:40.350Z,99071.28
2022-09-27T18:10:16.761Z,99067.13
2022-09-27T18:12:46.050Z,99064.72
2022-09-27T18:15:19.919Z,99057.84
2022-09-27T18:18:02.513Z,99070.16
2022-09-27T18:20:30.240Z,99072.03
2022-09-27T18:22:59.361Z,99072.69
2022-09-27T18:25:27.173Z,99067.56
2022-09-27T18:28:05.377Z,99065.78
2022-09-27T18:30:36.836Z,99066.47
2022-09-27T18:33:21.497Z,99073.03
2022-09-27T18:35:49.101Z,99073.03
2022-09-27T18:38:26.015Z,99070.53
2022-09-27T18:40:57.607Z,99082.22
2022-09-27T18:43:26.893Z,99079.50
2022-09-27T18:46:24.011Z,99079.16
2022-09-27T18:48:52.094Z,99077.19
2022-09-27T18:51:26.739Z,99071.59
2022-09-27T18:54:04.596Z,99077.19
2022-09-27T18:56:39.136Z,99072.03
2022-09-27T18:59:11.310Z,99058.03
2022-09-27T19:01:48.348Z,99079.81
2022-09-27T19:04:24.077Z,99076.19
2022-09-27T19:06:54.186Z,99083.72
2022-09-27T19:09:26.232Z,99071.16
2022-09-27T19:11:57.087Z,99086.31
2022-09-27T19:14:26.231Z,99086.31
2022-09-27T19:16:54.052Z,99080.22
2022-09-27T19:19:22.165Z,99083.28
2022-09-27T19:21:52.836Z,99076.97
2022-09-27T19:24:21.162Z,99080.56
2022-09-27T19:26:53.418Z,99083.50
2022-09-27T19:29:22.717Z,99082.09
2022-09-27T19:31:54.445Z,99082.41
2022-09-27T19:34:22.234Z,99077.59
2022-09-27T19:36:52.998Z,99083.94
2022-09-27T19:39:28.624Z,99080.97
2022-09-27T19:41:56.381Z,99079.97
2022-09-27T19:44:26.831Z,99082.38
2022-09-27T19:47:07.021Z,99062.81
2022-09-27T19:49:36.929Z,99080.19
2022-09-27T19:52:08.237Z,99081.63
2022-09-27T19:54:37.273Z,99083.00
2022-09-27T19:57:05.380Z,99081.16
2022-09-27T19:59:33.253Z,99079.94
2022-09-27T20:02:07.151Z,99084.09
2022-09-27T20:04:35.022Z,99079.72
2022-09-27T20:07:02.856Z,99079.59
2022-09-27T20:09:30.715Z,99078.63
2022-09-27T20:11:58.509Z,99076.84
2022-09-27T20:14:27.388Z,99079.38
2022-09-27T20:16:55.227Z,99077.09
2022-09-27T20:19:24.415Z,99080.59
2022-09-27T20:21:52.152Z,99076.44
2022-09-27T20:24:20.480Z,99081.69
2022-09-27T20:26:48.195Z,99080.38
2022-09-27T20:29:16.085Z,99083.47
2022-09-27T20:32:09.027Z,99075.63
2022-09-27T20:34:33.197Z,99079.53
2022-09-27T20:37:00.939Z,99081.88
2022-09-27T20:39:28.658Z,99074.78
2022-09-27T20:42:10.709Z,99074.34
2022-09-27T20:44:38.586Z,99073.66
2022-09-27T20:47:06.457Z,99078.25
2022-09-27T20:49:39.059Z,99076.09
2022-09-27T20:52:16.469Z,99083.19
2022-09-27T20:54:44.739Z,99070.41
2022-09-27T20:57:12.587Z,99085.78
2022-09-27T20:59:40.389Z,99084.06
2022-09-27T21:02:09.220Z,99083.28
2022-09-27T21:04:39.010Z,99086.03
2022-09-27T21:07:32.617Z,99093.13
2022-09-27T21:10:02.778Z,99081.44
2022-09-27T21:12:39.948Z,99082.53
2022-09-27T21:15:08.911Z,99079.13
2022-09-27T21:17:36.831Z,99082.63
2022-09-27T21:20:07.570Z,99084.50
2022-09-27T21:22:35.399Z,99084.38
2022-09-27T21:25:03.196Z,99075.00
2022-09-27T21:27:31.231Z,99085.69
2022-09-27T21:30:00.019Z,99077.94
2022-09-27T21:32:28.132Z,99078.06
2022-09-27T21:34:58.369Z,99077.94
2022-09-27T21:37:27.551Z,99083.63
2022-09-27T21:39:58.127Z,99081.00
2022-09-27T21:42:25.858Z,99082.53
2022-09-27T21:44:53.805Z,99083.06
2022-09-27T21:47:21.835Z,99086.38
2022-09-27T21:49:52.849Z,99085.50
2022-09-27T21:52:22.963Z,99086.13
2022-09-27T21:59:15.106Z,99081.34
2022-09-27T22:01:47.002Z,99078.47
2022-09-27T22:04:15.168Z,99074.09
2022-09-27T22:06:43.050Z,99084.28
2022-09-27T22:09:16.486Z,99077.59
2022-09-27T22:11:47.176Z,99075.75
2022-09-27T22:14:17.258Z,99075.44
2022-09-27T22:16:45.178Z,99079.47
2022-09-27T22:19:14.415Z,99061.88
2022-09-27T22:21:43.024Z,99075.84
2022-09-27T22:24:14.552Z,99080.88
2022-09-27T22:26:45.954Z,99078.91
2022-09-27T22:29:13.839Z,99074.53
2022-09-27T22:31:43.235Z,99078.47
2022-09-27T22:34:18.326Z,99074.75
2022-09-27T22:36:46.346Z,99069.28
2022-09-27T22:39:14.268Z,99068.19
2022-09-27T22:41:42.122Z,99070.13
2022-09-27T22:44:09.967Z,99066.38
2022-09-27T22:46:37.795Z,99060.06
2022-09-27T22:49:06.943Z,99066.38
2022-09-27T22:51:38.431Z,99053.28
2022-09-27T22:54:07.831Z,99063.94
2022-09-27T22:56:36.416Z,99063.59
2022-09-27T22:59:04.288Z,99056.50
2022-09-27T23:01:32.263Z,99054.50
2022-09-27T23:04:00.510Z,99056.91
2022-09-27T23:06:29.750Z,99043.16
2022-09-27T23:08:58.076Z,99033.09
2022-09-27T23:11:25.831Z,99038.41
2022-09-27T23:13:53.604Z,99035.69
2022-09-27T23:16:24.399Z,99034.72
2022-09-27T23:18:53.946Z,99036.34
2022-09-27T23:21:24.123Z,99038.72
2022-09-27T23:23:55.892Z,99044.63
2022-09-27T23:26:29.064Z,99043.38
2022-09-27T23:28:58.534Z,99033.78
2022-09-27T23:31:29.550Z,99043.84
2022-09-27T23:33:59.231Z,99043.22
2022-09-27T23:36:31.266Z,99037.56
2022-09-27T23:39:01.580Z,99029.38
2022-09-27T23:41:29.597Z,99038.16
2022-09-27T23:43:57.708Z,99028.84
2022-09-27T23:46:26.406Z,99031.38
2022-09-27T23:48:54.647Z,99028.66
2022-09-27T23:51:22.574Z,99018.25
2022-09-27T23:53:50.362Z,99023.16
2022-09-27T23:56:19.458Z,99010.16
2022-09-27T23:58:47.954Z,99018.91
